Flight Track Log - Related Links

Times and Time Zones

All times are in EDT time to prevent confusion due to time zone crossing. See the N762NC flight status page for this flight to view local times or setup timezone preferences in your user account.

Time Position Orientation Groundspeed Altitude Reporting Facility
EDT Latitude Longitude Course Direction KTS MPH feet Rate Location/Type
Fri 04:41:31 PM 33.6222 -84.4903 228° Southwest 439 505 2,500  Level Atlanta Center
Fri 04:42:31 PM 33.5906 -84.5600 241° Southwest 316 364 4,700 2,500 Climbing Atlanta Center
Fri 04:43:31 PM 33.5319 -84.5969 208° Southwest 243 280 7,500 2,550 Climbing Atlanta Center
Fri 04:44:00 PM 33.2918 -84.6657 228° Southwest  Level Estimated
Fri 04:44:31 PM 33.4592 -84.5842 172° South 280 322 9,800  Level Atlanta Center
Fri 04:45:00 PM 33.1924 -84.6696 182° South  Level FlightAware
Fri 04:46:00 PM 33.1068 -84.7302 228° Southwest  Level Estimated
Fri 04:46:31 PM 33.2819 -84.5408 168° South 330 380 12,900  Level Atlanta Center
Fri 04:47:31 PM 33.1839 -84.5403 180° South 351 404 15,000 2,200 Climbing Atlanta Center
Fri 04:48:31 PM 33.0836 -84.5372 179° South 356 410 17,300 2,000 Climbing Atlanta Center
Fri 04:49:31 PM 32.9750 -84.5317 178° South 356 410 19,000 1,600 Climbing Atlanta Center
Fri 04:50:31 PM 32.8667 -84.5236 176° South 377 434 20,500 1,400 Climbing Atlanta Center
Fri 04:51:31 PM 32.7683 -84.5256 181° South 386 444 21,800 1,350 Climbing Atlanta Center
Fri 04:52:31 PM 32.6825 -84.5892 212° Southwest 363 418 23,200 1,450 Climbing Atlanta Center
Fri 04:53:31 PM 32.6028 -84.6700 221° Southwest 363 418 24,700 1,400 Climbing Atlanta Center
Fri 04:54:31 PM 32.5294 -84.7558 225° Southwest 375 432 26,000 650 Climbing Atlanta Center
Fri 04:55:31 PM 32.4431 -84.8511 223° Southwest 380 437 26,000  Level Atlanta Center
Fri 04:56:31 PM 32.3611 -84.9436 224° Southwest 393 452 26,000  Level Atlanta Center
Fri 04:57:31 PM 32.2811 -85.0411 226° Southwest 409 471 26,000  Level Atlanta Center
Fri 04:58:31 PM 32.2072 -85.1336 227° Southwest 414 476 26,000  Level Atlanta Center
Fri 04:59:31 PM 32.1228 -85.2331 225° Southwest 414 476 26,000 -294 Level Atlanta Center
Fri 05:01:14 PM 31.9853 -85.3933 225° Southwest 427 491 25,200 -589 Descending Jacksonville Center
Fri 05:02:14 PM 31.9019 -85.4842 223° Southwest 417 480 24,400 -600 Descending Jacksonville Center
Fri 05:03:14 PM 31.8167 -85.5697 220° Southwest 412 474 24,000 -200 Descending Jacksonville Center
Fri 05:04:14 PM 31.7353 -85.6628 224° Southwest 407 468 24,000  Level Jacksonville Center
Fri 05:05:14 PM 31.6603 -85.7606 228° Southwest 407 468 24,000  Level Jacksonville Center
Fri 05:06:14 PM 31.5828 -85.8581 227° Southwest 407 468 24,000 -250 Level Jacksonville Center
Fri 05:07:14 PM 31.5094 -85.9556 229° Southwest 407 468 23,500 -1,050 Descending Jacksonville Center
Fri 05:08:14 PM 31.4081 -86.0106 205° Southwest 401 461 21,900 -2,300 Descending Jacksonville Center
Fri 05:09:14 PM 31.2967 -86.0336 190° South 397 457 18,900 -2,850 Descending Jacksonville Center
Fri 05:10:14 PM 31.1875 -86.0592 191° South 408 470 16,200 -3,000 Descending Jacksonville Center
Fri 05:11:14 PM 31.0903 -86.1044 202° Southwest 395 455 12,900 -2,550 Descending Jacksonville Center
Fri 05:12:14 PM 30.9931 -86.1497 202° Southwest 384 442 11,100 -950 Descending Jacksonville Center
Fri 05:13:14 PM 30.9228 -86.2028 213° Southwest 323 372 11,000 -750 Descending Jacksonville Center
Fri 05:14:14 PM 30.9206 -86.2947 268° West 271 312 9,600 -1,250 Descending Jacksonville Center
Fri 05:15:14 PM 30.9183 -86.3769 268° West 255 293 8,500 -1,150 Descending Jacksonville Center
Fri 05:16:14 PM 30.8808 -86.4458 238° Southwest 262 302 7,300 -1,050 Descending Jacksonville Center
Fri 05:17:14 PM 30.8314 -86.4997 223° Southwest 262 302 6,400 -1,150 Descending Jacksonville Center
Fri 05:18:14 PM 30.7569 -86.4678 160° South 218 251 5,000 -1,300 Descending Jacksonville Center
Fri 05:19:14 PM 30.6906 -86.4581 173° South 224 258 3,800 -1,200 Descending Jacksonville Center
Fri 05:20:14 PM 30.6294 -86.4775 195° South 237 273 2,600 -1,200 Descending Jacksonville Center

Login

Don't have an account? Register now (free) for customized features, flight alerts, and more!